High Level, Canada
Current Conditions -  °F | °C
As of 3:00 AM on Thursday 27 Nov 2014 (Local Time) from CYOJ Reporting Station
Clear Clear  
Wind Chill: -21°   Ceiling: Unl
Heat Index: -8°   Visibility: 9mi
Dew Point: -11°   Wind: 6mph
Humidity: 84%   Direction: 360°N
Pressure: 30.47"   Gusts: NA
Location:  58.52°N, 117.13°W
Report Text: CYOJ 271000Z AUTO 36005KT 9SM CLR M22/M24 A3047 RMK SLP358
Loading
Personal Weather Stations






























Interactive Weather Map New forecast layout! Learn more

10-Day Weather Forecast

Advertisements
Track Severe Weather on mobile